Time;durP1;ratioP1;P1;durP2;ratioP2;P2;SDS_P1;SDS_P2;PMS_P1;PMS_P2;Temp;Humidity;BMP_temperature;BMP_pressure;BME280_temperature;BME280_humidity;BME280_pressure;Samples;Min_cycle;Max_cycle;Signal;HPM_P1;HPM_P2
2021/01/09 00:05:29;;;;;;;107.90;45.50;;;;;;;-0.31;82.46;98962.17;4324565;81;21213;-87
2021/01/09 00:11:32;;;;;;;120.47;51.80;;;;;;;-0.34;82.40;98963.59;4276780;82;21185;-87
2021/01/09 00:17:37;;;;;;;154.90;62.00;;;;;;;-0.33;82.73;98977.27;4301621;80;21628;-85
2021/01/09 00:23:39;;;;;;;137.40;55.47;;;;;;;-0.28;82.62;98974.47;4329013;81;21929;-86
2021/01/09 00:29:45;;;;;;;128.87;53.70;;;;;;;-0.27;82.68;98971.23;4320958;81;21308;-87
2021/01/09 00:35:46;;;;;;;132.53;56.93;;;;;;;-0.26;82.70;98976.31;4332111;81;21201;-86
2021/01/09 00:41:48;;;;;;;101.80;43.67;;;;;;;-0.27;82.96;98982.77;4295890;80;21909;-86
2021/01/09 00:47:49;;;;;;;66.87;29.47;;;;;;;-0.26;83.05;98984.38;4318074;81;21671;-86
2021/01/09 00:53:51;;;;;;;39.57;19.27;;;;;;;-0.19;82.93;98985.31;4305241;81;21209;-86
2021/01/09 00:59:52;;;;;;;44.77;21.30;;;;;;;-0.13;82.73;98988.93;4317326;81;21189;-87
2021/01/09 01:05:54;;;;;;;39.47;18.33;;;;;;;-0.14;82.72;98992.70;4284507;81;21756;-87
2021/01/09 01:11:56;;;;;;;38.97;17.10;;;;;;;-0.16;82.56;98993.55;4312454;80;21185;-86
2021/01/09 01:17:57;;;;;;;35.27;16.57;;;;;;;-0.21;82.54;98988.31;4310658;81;21203;-86
2021/01/09 01:23:59;;;;;;;35.63;18.97;;;;;;;-0.32;82.78;98981.57;4308312;81;21587;-86
2021/01/09 01:30:00;;;;;;;36.10;18.27;;;;;;;-0.48;82.89;98988.92;4325167;80;21651;-87
2021/01/09 01:36:02;;;;;;;37.57;17.33;;;;;;;-0.63;82.98;98992.77;4324084;80;21198;-86
2021/01/09 01:42:04;;;;;;;33.90;16.97;;;;;;;-0.76;82.95;98990.89;4309386;81;21340;-86
2021/01/09 01:48:10;;;;;;;43.10;18.90;;;;;;;-0.80;83.01;98985.07;4331976;81;21223;-87
2021/01/09 01:54:12;;;;;;;38.95;17.90;;;;;;;-0.88;83.17;98988.46;4323014;81;21355;-87
2021/01/09 02:00:14;;;;;;;32.83;17.73;;;;;;;-1.00;83.16;98990.30;4329520;81;21194;-87
2021/01/09 02:06:29;;;;;;;34.57;16.80;;;;;;;-1.05;83.17;98991.73;4317217;80;21514;-86
2021/01/09 02:12:39;;;;;;;34.83;17.70;;;;;;;-1.04;83.26;98995.23;4326416;81;21181;-86
2021/01/09 02:18:42;;;;;;;32.83;16.63;;;;;;;-1.05;83.45;99000.37;4329769;80;21189;-86
2021/01/09 02:24:46;;;;;;;39.80;18.17;;;;;;;-1.09;83.36;98996.13;4277837;80;21356;-86
2021/01/09 02:30:48;;;;;;;41.93;18.40;;;;;;;-1.17;83.66;99004.88;4318302;81;21937;-88
2021/01/09 02:36:51;;;;;;;34.00;16.00;;;;;;;-1.19;83.78;99003.60;4323658;80;21183;-87
2021/01/09 02:42:52;;;;;;;36.00;16.03;;;;;;;-1.19;83.89;99003.60;4314102;81;21205;-87
2021/01/09 02:48:54;;;;;;;31.00;15.73;;;;;;;-1.19;83.85;99003.60;4326893;81;21653;-87
2021/01/09 02:54:55;;;;;;;32.53;15.23;;;;;;;-1.17;84.29;99006.23;4326693;81;21231;-87
2021/01/09 03:00:57;;;;;;;31.77;16.07;;;;;;;-1.08;84.41;99011.71;4312129;81;21739;-87
2021/01/09 03:06:58;;;;;;;33.83;16.90;;;;;;;-0.99;84.54;99006.69;4301219;81;21203;-86
2021/01/09 03:13:00;;;;;;;28.10;14.57;;;;;;;-0.87;84.66;99005.63;4300593;81;21759;-87
2021/01/09 03:19:01;;;;;;;28.03;15.23;;;;;;;-0.78;84.60;99007.85;4329414;81;21654;-86
2021/01/09 03:25:04;;;;;;;31.10;15.50;;;;;;;-0.70;84.94;99007.69;4313250;80;21634;-87
2021/01/09 03:31:05;;;;;;;26.33;14.23;;;;;;;-0.64;84.75;99007.85;4310935;81;21738;-87
2021/01/09 03:37:07;;;;;;;22.60;13.13;;;;;;;-0.62;84.84;99016.39;4301642;80;21189;-87
2021/01/09 03:43:09;;;;;;;25.30;13.77;;;;;;;-0.60;84.85;99010.98;4301757;81;21667;-85
2021/01/09 03:49:10;;;;;;;24.73;13.20;;;;;;;-0.62;84.90;99021.23;4302892;81;21207;-87
2021/01/09 03:55:12;;;;;;;26.07;13.60;;;;;;;-0.69;84.69;99023.52;4294799;80;21208;-87
2021/01/09 04:01:13;;;;;;;23.97;12.57;;;;;;;-0.77;84.62;99024.78;4296861;81;21699;-86
2021/01/09 04:07:15;;;;;;;24.20;13.77;;;;;;;-0.88;84.86;99025.55;4318831;81;21659;-87
2021/01/09 04:13:16;;;;;;;27.20;15.03;;;;;;;-0.95;84.79;99025.67;4305283;81;21666;-86
2021/01/09 04:19:18;;;;;;;29.37;15.63;;;;;;;-0.97;84.95;99021.17;4323248;81;21203;-86
2021/01/09 04:25:19;;;;;;;30.20;16.67;;;;;;;-0.87;85.46;99025.78;4310664;81;21240;-87
2021/01/09 04:31:21;;;;;;;31.57;15.33;;;;;;;-0.76;85.61;99019.11;4326534;81;21202;-87
2021/01/09 04:37:23;;;;;;;30.37;15.00;;;;;;;-0.62;85.59;99028.48;4340855;81;21146;-86
2021/01/09 04:43:26;;;;;;;26.43;14.27;;;;;;;-0.55;85.42;99034.27;4314701;81;21628;-87
2021/01/09 04:49:29;;;;;;;29.17;15.43;;;;;;;-0.57;85.67;99031.88;4300918;81;21185;-88
2021/01/09 04:55:31;;;;;;;26.40;14.73;;;;;;;-0.46;85.72;99031.91;4322067;81;21715;-86
2021/01/09 05:01:33;;;;;;;29.13;15.23;;;;;;;-0.34;85.69;99035.41;4295154;81;21831;-87
2021/01/09 05:07:35;;;;;;;26.57;15.23;;;;;;;-0.32;85.54;99042.09;4272972;81;21205;-87
2021/01/09 05:13:37;;;;;;;31.97;16.03;;;;;;;-0.29;85.70;99047.41;4325298;81;21166;-87
2021/01/09 05:19:38;;;;;;;31.13;15.57;;;;;;;-0.25;85.49;99055.91;4305710;81;21621;-86
2021/01/09 05:25:40;;;;;;;30.57;15.87;;;;;;;-0.28;85.55;99055.17;4310642;80;21202;-87
2021/01/09 05:31:42;;;;;;;30.37;15.33;;;;;;;-0.26;85.67;99061.59;4285106;81;21664;-86
2021/01/09 05:37:49;;;;;;;36.07;16.27;;;;;;;-0.23;85.46;99056.41;4300230;81;21335;-87
2021/01/09 05:44:06;;;;;;;31.70;16.05;;;;;;;-0.28;85.37;99057.86;4327652;81;21916;-87
2021/01/09 05:50:08;;;;;;;31.48;16.50;;;;;;;-0.43;85.28;99075.68;4337285;80;21214;-87
2021/01/09 05:56:12;;;;;;;28.83;15.57;;;;;;;-0.63;85.34;99082.02;4320260;80;21489;-86
2021/01/09 06:02:16;;;;;;;32.47;17.27;;;;;;;-0.64;85.55;99091.20;4287249;81;21185;-88
2021/01/09 06:08:26;;;;;;;35.87;18.27;;;;;;;-0.65;85.58;99090.92;4300648;81;21458;-87
2021/01/09 06:14:27;;;;;;;43.23;20.53;;;;;;;-0.66;85.64;99105.48;4312216;81;21322;-87
2021/01/09 06:20:29;;;;;;;43.53;21.30;;;;;;;-0.68;85.61;99117.06;4312429;81;21213;-88
2021/01/09 06:26:33;;;;;;;43.90;20.07;;;;;;;-0.69;85.57;99116.83;4319695;80;21198;-88
2021/01/09 06:32:40;;;;;;;41.15;19.07;;;;;;;-0.65;85.60;99120.50;4310634;82;21341;-88
2021/01/09 06:38:49;;;;;;;38.75;19.87;;;;;;;-0.62;85.51;99130.12;4326153;81;21150;-87
2021/01/09 06:44:52;;;;;;;42.77;19.93;;;;;;;-0.58;85.58;99136.48;4315040;80;21484;-88
2021/01/09 06:50:54;;;;;;;47.27;20.83;;;;;;;-0.60;85.52;99143.27;4325133;81;21186;-87
2021/01/09 06:57:16;;;;;;;51.23;21.23;;;;;;;-0.61;85.47;99153.78;4293796;81;21178;-88
2021/01/09 07:03:23;;;;;;;44.50;21.60;;;;;;;-0.56;85.54;99161.72;4326658;80;21192;-90
2021/01/09 07:09:27;;;;;;;41.90;19.07;;;;;;;-0.55;85.63;99162.77;4323138;80;21178;-90
2021/01/09 07:15:30;;;;;;;44.70;22.20;;;;;;;-0.49;85.60;99170.20;4306770;80;21157;-90
2021/01/09 07:21:35;;;;;;;39.43;19.13;;;;;;;-0.46;85.76;99175.80;4331234;81;21652;-91
2021/01/09 07:27:45;;;;;;;42.90;20.90;;;;;;;-0.36;85.57;99182.30;4307609;80;21197;-91
2021/01/09 07:33:47;;;;;;;46.70;20.67;;;;;;;-0.27;85.61;99191.83;4312752;81;21123;-90
2021/01/09 07:39:55;;;;;;;44.42;23.22;;;;;;;-0.21;85.70;99200.85;4336481;80;21190;-91
2021/01/09 07:45:56;;;;;;;55.25;24.27;;;;;;;-0.09;85.81;99208.40;4317648;81;21238;-92
2021/01/09 07:52:08;;;;;;;40.57;20.47;;;;;;;-0.04;85.55;99218.53;4310693;80;21197;-90
2021/01/09 07:58:12;;;;;;;40.77;20.57;;;;;;;0.03;85.43;99217.56;4321482;80;21230;-90
2021/01/09 08:04:13;;;;;;;45.73;23.30;;;;;;;0.08;85.34;99218.00;4334377;80;21573;-90
2021/01/09 08:10:25;;;;;;;46.10;22.90;;;;;;;0.15;85.47;99221.09;4330865;80;21211;-90
2021/01/09 08:16:26;;;;;;;46.10;23.30;;;;;;;0.43;85.46;99231.26;4323780;80;21295;-89
2021/01/09 08:22:28;;;;;;;51.30;25.00;;;;;;;0.80;85.46;99222.31;4331707;80;21586;-90
2021/01/09 08:28:30;;;;;;;48.40;25.12;;;;;;;0.82;85.28;99208.53;4298050;80;21683;-88
2021/01/09 08:34:31;;;;;;;50.92;24.12;;;;;;;1.01;84.67;99225.32;4317135;80;21190;-88
2021/01/09 08:40:33;;;;;;;44.18;23.60;;;;;;;1.49;84.88;99228.40;4317435;80;21130;-88
2021/01/09 08:46:37;;;;;;;44.40;24.70;;;;;;;1.99;83.81;99234.31;4324772;80;21216;-88
2021/01/09 08:52:43;;;;;;;43.83;22.90;;;;;;;2.25;84.23;99242.50;4303474;81;21643;-91
2021/01/09 08:58:46;;;;;;;46.02;25.02;;;;;;;2.55;84.04;99240.26;4296518;81;21206;-91
2021/01/09 09:04:51;;;;;;;43.50;23.57;;;;;;;3.27;84.19;99244.45;4299546;80;21198;-92
2021/01/09 09:10:55;;;;;;;41.85;23.50;;;;;;;3.77;82.86;99255.73;4330957;80;21236;-92
2021/01/09 09:17:01;;;;;;;45.48;23.45;;;;;;;3.51;81.92;99254.98;4307449;80;21192;-91
2021/01/09 09:23:25;;;;;;;47.53;23.05;;;;;;;3.34;82.00;99252.31;4290503;81;21204;-93
2021/01/09 09:29:32;;;;;;;41.40;22.77;;;;;;;3.20;82.07;99244.39;4305136;81;21177;-92
2021/01/09 09:35:34;;;;;;;38.02;21.17;;;;;;;3.41;82.41;99237.75;4313576;80;21879;-92
2021/01/09 09:41:57;;;;;;;39.23;22.10;;;;;;;4.07;82.17;99224.05;4322771;81;21227;-92
2021/01/09 09:47:58;;;;;;;39.20;21.52;;;;;;;3.99;80.60;99233.81;4315337;81;21229;-92
2021/01/09 09:54:00;;;;;;;41.83;21.40;;;;;;;3.69;80.71;99220.55;4316210;81;21196;-92
2021/01/09 10:00:11;;;;;;;49.77;22.87;;;;;;;3.27;80.19;99220.91;4333855;81;21215;-91
2021/01/09 10:06:19;;;;;;;46.77;22.52;;;;;;;2.91;80.16;99219.90;4305613;80;21165;-92
2021/01/09 10:12:20;;;;;;;39.08;21.97;;;;;;;2.80;80.74;99217.86;4315187;80;21643;-92
2021/01/09 10:18:23;;;;;;;40.15;20.57;;;;;;;2.86;80.96;99213.33;4331683;80;21167;-91
2021/01/09 10:24:25;;;;;;;35.35;20.40;;;;;;;3.06;80.37;99210.51;4305670;80;21839;-91
2021/01/09 10:30:26;;;;;;;36.42;18.70;;;;;;;2.91;80.05;99214.48;4319896;80;21643;-92
2021/01/09 10:36:31;;;;;;;35.23;18.02;;;;;;;2.86;80.20;99218.73;4210214;82;21206;-92
2021/01/09 10:42:33;;;;;;;33.90;19.67;;;;;;;2.83;80.17;99219.92;4315318;80;21197;-91
2021/01/09 10:48:35;;;;;;;33.65;17.55;;;;;;;2.84;79.85;99214.73;4315498;80;21662;-92
2021/01/09 10:54:36;;;;;;;36.10;18.90;;;;;;;2.82;79.77;99217.77;4318642;80;21203;-92
2021/01/09 11:00:38;;;;;;;32.60;16.10;;;;;;;2.77;79.48;99211.73;4309756;80;21221;-92
2021/01/09 11:06:39;;;;;;;27.55;15.45;;;;;;;2.73;79.18;99214.81;4309642;80;21224;-92
2021/01/09 11:12:41;;;;;;;29.95;17.10;;;;;;;2.62;79.01;99214.89;4350859;80;21688;-92
2021/01/09 11:18:43;;;;;;;36.70;18.92;;;;;;;2.55;79.49;99211.88;4327195;80;21726;-92
2021/01/09 11:24:44;;;;;;;54.88;22.98;;;;;;;2.59;79.48;99224.98;4332849;80;21341;-92
2021/01/09 11:30:46;;;;;;;45.70;21.05;;;;;;;2.64;79.21;99216.19;4297588;81;21191;-91
2021/01/09 11:36:48;;;;;;;40.65;20.85;;;;;;;2.65;78.95;99225.06;4296430;80;21158;-93
2021/01/09 11:42:49;;;;;;;45.33;23.42;;;;;;;2.58;78.86;99228.27;4325055;81;21235;-91
2021/01/09 11:48:51;;;;;;;42.03;21.33;;;;;;;2.57;79.11;99221.25;4299772;80;21189;-92
2021/01/09 11:54:52;;;;;;;41.68;20.77;;;;;;;2.49;78.79;99218.56;4245156;82;21217;-93
2021/01/09 12:00:54;;;;;;;40.35;19.75;;;;;;;2.41;78.94;99223.39;4218635;83;21237;-92
2021/01/09 12:06:57;;;;;;;43.55;20.97;;;;;;;2.41;78.66;99220.69;4200184;82;21381;-93
2021/01/09 12:13:02;;;;;;;44.42;23.60;;;;;;;2.37;78.92;99229.97;4177805;82;21437;-91
2021/01/09 12:19:04;;;;;;;45.63;25.35;;;;;;;2.26;78.77;99232.73;4311293;81;21299;-92
2021/01/09 12:25:06;;;;;;;44.90;23.85;;;;;;;2.14;78.62;99227.70;4320059;81;21178;-92
2021/01/09 12:31:09;;;;;;;50.50;24.95;;;;;;;2.15;78.59;99226.58;4323452;80;21175;-91
2021/01/09 12:37:10;;;;;;;58.87;28.00;;;;;;;2.19;78.90;99226.20;4319384;81;21610;-92
2021/01/09 12:43:13;;;;;;;53.20;25.77;;;;;;;2.30;79.07;99234.25;4311653;81;21934;-92
2021/01/09 12:49:20;;;;;;;51.98;26.00;;;;;;;2.33;78.96;99236.33;4311919;80;21338;-92
2021/01/09 12:55:22;;;;;;;48.28;23.80;;;;;;;2.40;79.14;99224.48;4315740;81;21191;-92
2021/01/09 13:01:34;;;;;;;56.48;26.27;;;;;;;2.40;78.72;99223.94;4289538;81;21592;-93
2021/01/09 13:07:50;;;;;;;57.27;28.80;;;;;;;2.39;78.82;99230.46;4582387;76;22928;-93
2021/01/09 13:13:51;;;;;;;56.00;28.75;;;;;;;2.26;78.78;99239.48;4501379;78;21689;-94
2021/01/09 13:19:53;;;;;;;53.83;26.85;;;;;;;2.29;79.23;99246.16;4486639;79;21153;-93
2021/01/09 13:26:05;;;;;;;50.80;25.50;;;;;;;2.14;78.72;99251.45;4484068;78;21193;-93
2021/01/09 13:32:08;;;;;;;48.78;24.37;;;;;;;1.94;78.89;99266.08;4482021;78;21784;-91
2021/01/09 13:38:09;;;;;;;42.00;22.05;;;;;;;1.89;79.09;99261.61;4498847;78;21156;-94
2021/01/09 13:44:11;;;;;;;51.28;23.92;;;;;;;1.84;78.98;99277.13;4492508;79;21137;-92
2021/01/09 13:50:12;;;;;;;46.85;23.55;;;;;;;1.80;79.06;99281.58;4486812;78;21136;-93
2021/01/09 13:56:33;;;;;;;48.23;23.73;;;;;;;1.75;79.14;99290.61;4485392;78;21598;-92
2021/01/09 14:02:34;;;;;;;54.27;25.02;;;;;;;1.61;79.29;99292.59;4459508;78;21789;-92
2021/01/09 14:08:35;;;;;;;49.10;25.48;;;;;;;1.45;79.18;99303.52;4490900;78;21141;-93
2021/01/09 14:14:37;;;;;;;52.38;26.85;;;;;;;1.33;79.42;99306.76;4492728;79;21145;-91
2021/01/09 14:20:39;;;;;;;60.00;30.70;;;;;;;1.30;79.62;99316.81;4498734;79;21128;-92
2021/01/09 14:26:42;;;;;;;66.82;31.30;;;;;;;1.31;79.91;99319.78;4491906;79;21574;-92
2021/01/09 14:32:44;;;;;;;63.45;31.45;;;;;;;1.26;80.03;99318.55;4485766;78;21145;-92
2021/01/09 14:38:45;;;;;;;71.45;33.67;;;;;;;1.23;80.31;99331.83;4496016;78;21149;-92
2021/01/09 14:44:47;;;;;;;75.67;34.80;;;;;;;1.14;80.21;99326.36;4485635;79;21145;-91
2021/01/09 14:50:49;;;;;;;68.97;33.85;;;;;;;1.11;80.57;99335.06;4501516;78;21201;-93
2021/01/09 15:04:02;;;;;;;81.45;37.28;;;;;;;1.03;80.59;99354.69;4583658;76;22576;-91
2021/01/09 15:10:05;;;;;;;86.45;37.95;;;;;;;0.89;80.74;99367.94;4489400;78;21120;-91
2021/01/09 15:16:07;;;;;;;79.53;38.70;;;;;;;0.80;80.88;99371.88;4484801;79;21694;-91
2021/01/09 15:22:10;;;;;;;96.32;41.58;;;;;;;0.81;81.11;99382.92;4488627;78;21180;-91
2021/01/09 15:28:11;;;;;;;96.82;44.95;;;;;;;0.83;81.17;99391.48;4515374;78;21302;-93
2021/01/09 15:34:13;;;;;;;94.52;42.88;;;;;;;0.81;81.27;99391.55;4561822;78;21148;-93
2021/01/09 15:40:15;;;;;;;91.87;43.13;;;;;;;0.85;81.47;99397.92;4562058;78;21148;-91
2021/01/09 15:46:16;;;;;;;109.45;51.63;;;;;;;0.85;81.47;99397.92;4537974;78;21136;-92
2021/01/09 15:52:18;;;;;;;105.63;48.10;;;;;;;0.83;81.44;99409.58;4488246;78;21124;-93
2021/01/09 15:58:19;;;;;;;114.28;51.35;;;;;;;0.75;81.71;99405.66;4487433;78;21733;-91
2021/01/09 16:04:21;;;;;;;122.92;52.25;;;;;;;0.64;82.00;99426.39;4497951;79;21826;-91
2021/01/09 16:10:23;;;;;;;125.95;54.63;;;;;;;0.59;81.98;99425.14;4475474;79;21139;-90
2021/01/09 16:16:30;;;;;;;116.93;53.30;;;;;;;0.59;81.98;99425.14;4494758;79;21145;-91
2021/01/09 16:22:31;;;;;;;117.22;51.55;;;;;;;0.56;82.11;99431.94;4493043;79;21137;-93
2021/01/09 16:28:33;;;;;;;111.05;51.23;;;;;;;0.53;82.01;99429.84;4488768;79;21132;-93
2021/01/09 16:34:34;;;;;;;103.65;44.85;;;;;;;0.50;82.19;99431.76;4492391;78;21153;-92
2021/01/09 16:40:36;;;;;;;101.07;44.98;;;;;;;0.42;81.92;99424.94;4503662;78;21172;-91
2021/01/09 16:46:39;;;;;;;100.02;44.93;;;;;;;0.32;82.01;99426.45;4484084;79;21141;-91
2021/01/09 16:52:44;;;;;;;104.20;46.60;;;;;;;0.22;82.19;99432.05;4505702;79;21593;-92
2021/01/09 16:58:46;;;;;;;98.40;44.58;;;;;;;0.21;82.26;99428.55;4485549;79;21172;-91
2021/01/09 17:04:48;;;;;;;91.15;39.95;;;;;;;0.18;82.31;99429.14;4490601;79;21133;-92
2021/01/09 17:10:49;;;;;;;87.85;39.13;;;;;;;0.20;82.25;99437.73;4480493;79;21133;-91
2021/01/09 17:16:51;;;;;;;93.37;39.27;;;;;;;0.12;82.29;99440.29;4491774;79;21552;-93
2021/01/09 17:22:52;;;;;;;88.62;40.28;;;;;;;0.03;82.29;99438.27;4493676;79;21155;-91
2021/01/09 17:28:54;;;;;;;87.40;37.03;;;;;;;-0.02;82.35;99434.31;4490476;79;21582;-91
2021/01/09 17:35:00;;;;;;;83.73;36.23;;;;;;;-0.19;82.42;99443.48;4480562;79;21212;-93
2021/01/09 17:41:01;;;;;;;96.53;41.92;;;;;;;-0.27;82.55;99443.37;4484651;79;21138;-92
2021/01/09 17:53:59;;;;;;;127.27;57.40;;;;;;;-0.49;82.61;99445.33;4104559;79;21711;-91
2021/01/09 18:00:00;;;;;;;136.57;58.90;;;;;;;-0.65;82.71;99455.23;4428883;79;21686;-92
2021/01/09 18:06:04;;;;;;;128.00;56.10;;;;;;;-0.63;82.89;99466.50;4413075;80;21587;-93
2021/01/09 18:12:06;;;;;;;125.20;56.13;;;;;;;-0.66;82.80;99462.48;4432499;80;21173;-91
2021/01/09 18:18:10;;;;;;;121.40;53.67;;;;;;;-0.58;83.53;99464.53;4433825;79;21603;-91
2021/01/09 18:24:12;;;;;;;132.50;56.10;;;;;;;-0.41;83.63;99461.34;4429262;79;21132;-93
2021/01/09 18:30:15;;;;;;;130.47;57.43;;;;;;;-0.34;83.34;99472.52;4429744;80;21540;-92
2021/01/09 18:36:29;;;;;;;132.97;56.03;;;;;;;-0.34;83.58;99466.59;4404537;80;21149;-93
2021/01/09 18:42:32;;;;;;;142.62;61.53;;;;;;;-0.29;83.59;99460.34;4446198;80;21129;-91
2021/01/09 18:48:39;;;;;;;139.73;60.43;;;;;;;-0.29;83.42;99462.50;4449377;80;21717;-93
2021/01/09 18:54:44;;;;;;;147.30;60.95;;;;;;;-0.43;83.46;99460.83;4420521;79;21152;-90
2021/01/09 19:00:47;;;;;;;112.10;47.77;;;;;;;-0.44;83.59;99459.23;4437661;79;21161;-90
2021/01/09 19:06:49;;;;;;;135.33;57.63;;;;;;;-0.40;84.06;99464.27;4438614;78;21198;-89
2021/01/09 19:12:52;;;;;;;126.70;54.27;;;;;;;-0.36;84.08;99466.66;4440726;79;21208;-90
2021/01/09 19:18:55;;;;;;;128.13;54.07;;;;;;;-0.28;84.31;99479.41;4466126;78;21188;-92
2021/01/09 19:24:59;;;;;;;114.17;51.08;;;;;;;-0.18;84.40;99477.92;4438052;78;21149;-92
2021/01/09 19:31:01;;;;;;;130.10;56.70;;;;;;;-0.18;84.00;99480.08;4448509;79;21422;-92
2021/01/09 19:37:05;;;;;;;132.17;53.93;;;;;;;-0.21;84.43;99486.58;4421684;78;21126;-90
2021/01/09 19:43:08;;;;;;;131.23;58.00;;;;;;;-0.23;84.74;99486.06;4437089;78;21713;-91
2021/01/09 19:49:17;;;;;;;116.23;50.60;;;;;;;-0.15;84.74;99489.45;4434794;78;21182;-90
2021/01/09 19:55:20;;;;;;;129.70;56.20;;;;;;;-0.12;84.53;99495.59;4437826;78;21196;-91
2021/01/09 20:01:22;;;;;;;122.47;54.57;;;;;;;-0.07;84.91;99494.98;4435523;78;21682;-89
2021/01/09 20:07:31;;;;;;;129.00;56.77;;;;;;;0.00;84.92;99502.69;4426674;79;21136;-91
2021/01/09 20:13:34;;;;;;;131.40;57.90;;;;;;;0.09;84.90;99506.30;4423853;79;21156;-92
2021/01/09 20:19:36;;;;;;;151.83;63.47;;;;;;;0.13;84.95;99512.67;4426251;79;21223;-90
2021/01/09 20:25:38;;;;;;;149.60;63.93;;;;;;;0.17;84.81;99508.32;4425702;79;21149;-92
2021/01/09 20:31:45;;;;;;;141.97;62.83;;;;;;;0.14;84.90;99518.34;4427636;80;21169;-91
2021/01/09 20:37:47;;;;;;;151.02;65.22;;;;;;;0.21;84.80;99526.82;4422383;80;21173;-93
2021/01/09 20:43:53;;;;;;;142.90;61.90;;;;;;;0.19;84.96;99529.56;4424966;80;21204;-92
2021/01/09 20:49:58;;;;;;;155.47;69.03;;;;;;;0.18;84.89;99529.29;4387832;80;21141;-92
2021/01/09 20:56:00;;;;;;;154.18;66.33;;;;;;;0.18;84.94;99539.52;4427705;80;21129;-93
2021/01/09 21:02:22;;;;;;;152.53;67.17;;;;;;;0.15;85.09;99526.66;4586663;77;23129;-92
2021/01/09 21:08:24;;;;;;;153.25;65.60;;;;;;;0.17;85.08;99539.82;4487967;78;21675;-95
2021/01/09 21:14:26;;;;;;;151.37;67.75;;;;;;;0.14;84.96;99547.95;4485105;78;21133;-92
2021/01/09 21:20:27;;;;;;;150.85;63.52;;;;;;;0.17;84.99;99555.97;4517273;78;21160;-93
2021/01/09 21:26:29;;;;;;;142.80;64.27;;;;;;;0.12;85.06;99550.66;4477818;78;21315;-92
2021/01/09 21:32:31;;;;;;;137.70;62.70;;;;;;;0.17;85.15;99557.31;4479836;78;21215;-91
2021/01/09 21:38:32;;;;;;;129.10;57.37;;;;;;;0.15;85.00;99558.15;4479617;78;21190;-91
2021/01/09 21:44:35;;;;;;;124.62;54.85;;;;;;;0.16;84.99;99563.23;4474961;78;21195;-92
2021/01/09 21:50:36;;;;;;;125.65;58.25;;;;;;;0.16;84.94;99557.86;4481637;78;21148;-91
2021/01/09 21:56:42;;;;;;;120.37;56.18;;;;;;;0.19;85.08;99556.48;4477844;78;21132;-91
2021/01/09 22:02:44;;;;;;;120.85;53.58;;;;;;;0.18;84.74;99554.33;4464502;79;21236;-92
2021/01/09 22:08:46;;;;;;;108.78;51.08;;;;;;;0.16;84.78;99554.39;4459932;78;21115;-92
2021/01/09 22:14:48;;;;;;;125.13;55.33;;;;;;;0.16;84.83;99557.08;4468838;79;21123;-91
2021/01/09 22:20:49;;;;;;;129.38;58.15;;;;;;;0.17;84.89;99558.66;4466027;77;21592;-91
2021/01/09 22:26:53;;;;;;;122.93;53.60;;;;;;;0.18;84.78;99559.72;4468606;79;21686;-90
2021/01/09 22:32:56;;;;;;;116.63;56.23;;;;;;;0.16;84.86;99557.08;4462056;79;21148;-91
2021/01/09 22:38:59;;;;;;;116.97;53.98;;;;;;;0.18;84.81;99559.72;4458794;78;21190;-91
2021/01/09 22:45:02;;;;;;;132.37;61.80;;;;;;;0.18;85.05;99564.30;4462672;79;21158;-91
2021/01/09 22:51:04;;;;;;;132.30;57.05;;;;;;;0.21;84.94;99565.05;4462754;79;21861;-92
2021/01/09 22:57:06;;;;;;;134.60;57.83;;;;;;;0.21;84.88;99565.05;4465978;78;21195;-91
2021/01/09 23:03:08;;;;;;;138.40;59.00;;;;;;;0.19;84.58;99564.00;4437715;79;21622;-90
2021/01/09 23:09:10;;;;;;;115.37;52.05;;;;;;;0.19;84.58;99564.00;4430995;79;21220;-92
2021/01/09 23:15:17;;;;;;;125.05;52.83;;;;;;;0.14;84.65;99556.56;4431558;79;21571;-91
2021/01/09 23:21:19;;;;;;;125.70;56.70;;;;;;;0.14;84.65;99556.56;4436728;79;21710;-89
2021/01/09 23:27:20;;;;;;;134.03;58.20;;;;;;;0.17;84.78;99558.66;4442216;79;21153;-92
2021/01/09 23:33:22;;;;;;;141.57;60.43;;;;;;;0.21;84.89;99558.31;4439866;79;21147;-91
2021/01/09 23:39:25;;;;;;;135.22;59.53;;;;;;;0.22;84.68;99567.45;4435544;79;21158;-90
2021/01/09 23:45:26;;;;;;;128.12;53.68;;;;;;;0.24;84.87;99572.54;4436101;79;21615;-91
2021/01/09 23:51:28;;;;;;;121.62;54.03;;;;;;;0.09;84.63;99548.56;4428043;79;21890;-92
2021/01/09 23:57:29;;;;;;;116.37;50.25;;;;;;;0.09;84.63;99548.56;4439039;79;21161;-92
